createdAt,value
2023-02-22T00:01:51.151Z,20.45
2023-02-22T00:04:39.742Z,19.60
2023-02-22T00:07:26.077Z,22.13
2023-02-22T00:10:14.604Z,22.02
2023-02-22T00:13:00.647Z,21.80
2023-02-22T00:15:46.443Z,20.45
2023-02-22T00:18:32.238Z,22.38
2023-02-22T00:21:18.515Z,19.58
2023-02-22T00:24:22.977Z,22.60
2023-02-22T00:27:09.159Z,21.52
2023-02-22T00:29:56.630Z,23.92
2023-02-22T00:32:43.204Z,19.98
2023-02-22T00:35:30.620Z,23.10
2023-02-22T00:38:18.596Z,20.40
2023-02-22T00:41:04.809Z,24.73
2023-02-22T00:43:50.888Z,24.65
2023-02-22T00:46:38.609Z,19.92
2023-02-22T00:49:26.147Z,18.48
2023-02-22T00:52:12.484Z,18.08
2023-02-22T00:55:00.065Z,23.52
2023-02-22T00:57:45.929Z,18.80
2023-02-22T01:00:33.519Z,20.83
2023-02-22T01:03:20.974Z,18.85
2023-02-22T01:06:07.765Z,20.60
2023-02-22T01:08:53.935Z,17.45
2023-02-22T01:11:41.558Z,17.17
2023-02-22T01:14:28.147Z,15.98
2023-02-22T01:17:14.337Z,16.02
2023-02-22T01:20:00.004Z,14.15
2023-02-22T01:22:48.491Z,18.38
2023-02-22T01:25:35.431Z,18.15
2023-02-22T01:28:22.597Z,18.77
2023-02-22T01:31:09.167Z,19.25
2023-02-22T01:33:55.129Z,16.73
2023-02-22T01:36:41.324Z,20.55
2023-02-22T01:39:28.637Z,16.60
2023-02-22T01:42:14.496Z,13.30
2023-02-22T01:45:32.773Z,15.57
2023-02-22T01:48:25.013Z,16.65
2023-02-22T01:51:20.854Z,15.38
2023-02-22T01:54:11.045Z,15.23
2023-02-22T01:57:06.144Z,13.77
2023-02-22T01:59:56.862Z,17.05
2023-02-22T02:02:49.476Z,19.10
2023-02-22T02:05:39.834Z,20.20
2023-02-22T02:08:36.150Z,17.50
2023-02-22T02:11:25.596Z,19.45
2023-02-22T02:14:12.793Z,17.13
2023-02-22T02:17:01.567Z,15.52
2023-02-22T02:20:01.289Z,14.07
2023-02-22T02:23:06.339Z,13.52
2023-02-22T02:26:23.046Z,13.13
2023-02-22T02:29:18.236Z,17.00
2023-02-22T02:32:10.344Z,14.55
2023-02-22T02:34:57.725Z,11.68
2023-02-22T02:38:15.001Z,12.60
2023-02-22T02:41:32.374Z,14.88
2023-02-22T02:44:27.642Z,13.75
2023-02-22T02:47:24.025Z,14.07
2023-02-22T02:50:47.179Z,13.00
2023-02-22T02:53:36.513Z,15.60
2023-02-22T02:56:23.589Z,13.98
2023-02-22T02:59:27.641Z,14.70
2023-02-22T03:02:25.761Z,12.98
2023-02-22T03:05:11.678Z,14.48
2023-02-22T03:08:34.533Z,11.02
2023-02-22T03:11:23.879Z,14.20
2023-02-22T03:14:27.628Z,13.70
2023-02-22T03:17:41.468Z,13.38
2023-02-22T03:20:32.443Z,12.25
2023-02-22T03:23:43.696Z,13.02
2023-02-22T03:26:36.418Z,14.85
2023-02-22T03:29:25.135Z,14.55
2023-02-22T03:32:16.817Z,16.58
2023-02-22T03:35:13.115Z,14.30
2023-02-22T03:38:02.991Z,11.13
2023-02-22T03:40:52.259Z,11.48
2023-02-22T03:43:42.017Z,10.30
2023-02-22T03:46:33.060Z,13.95
2023-02-22T03:49:40.614Z,14.15
2023-02-22T03:52:26.549Z,10.73
2023-02-22T03:55:13.218Z,11.00
2023-02-22T03:58:00.604Z,12.40
2023-02-22T04:00:53.124Z,10.45
2023-02-22T04:03:40.389Z,11.40
2023-02-22T04:06:27.499Z,13.93
2023-02-22T04:09:14.912Z,9.52
2023-02-22T04:12:00.727Z,12.32
2023-02-22T04:14:47.770Z,10.15
2023-02-22T04:17:34.005Z,12.35
2023-02-22T04:20:25.627Z,11.93
2023-02-22T04:23:17.047Z,12.45
2023-02-22T04:26:03.620Z,11.43
2023-02-22T04:28:50.262Z,11.65
2023-02-22T04:31:38.255Z,11.70
2023-02-22T04:34:25.095Z,12.50
2023-02-22T04:37:12.374Z,9.27
2023-02-22T04:39:58.263Z,9.50
2023-02-22T04:42:44.179Z,8.77
2023-02-22T04:45:30.745Z,10.85
2023-02-22T04:48:16.711Z,10.00
2023-02-22T04:51:02.680Z,13.52
2023-02-22T04:53:51.153Z,12.27
2023-02-22T04:56:37.467Z,9.77
2023-02-22T04:59:24.787Z,9.55
2023-02-22T05:02:18.928Z,13.45
2023-02-22T05:05:05.663Z,10.13
2023-02-22T05:07:51.453Z,12.15
2023-02-22T05:10:37.416Z,12.73
2023-02-22T05:13:23.302Z,8.50
2023-02-22T05:16:09.065Z,9.27
2023-02-22T05:18:54.725Z,11.57
2023-02-22T05:21:40.455Z,12.15
2023-02-22T05:24:26.188Z,13.20
2023-02-22T05:27:12.220Z,11.07
2023-02-22T05:29:57.925Z,10.25
2023-02-22T05:32:46.107Z,13.43
2023-02-22T05:35:32.778Z,12.20
2023-02-22T05:38:18.440Z,14.10
2023-02-22T05:41:04.466Z,13.85
2023-02-22T05:43:50.733Z,13.88
2023-02-22T05:46:36.800Z,10.93
2023-02-22T05:49:23.211Z,12.63
2023-02-22T05:52:08.996Z,13.52
2023-02-22T05:54:54.952Z,18.98
2023-02-22T05:57:41.290Z,10.98
2023-02-22T06:00:30.139Z,12.10
2023-02-22T06:03:16.151Z,14.18
2023-02-22T06:06:02.337Z,11.05
2023-02-22T06:08:48.172Z,12.13
2023-02-22T06:11:34.542Z,11.75
2023-02-22T06:14:20.335Z,12.07
2023-02-22T06:17:06.661Z,11.63
2023-02-22T06:19:52.983Z,14.98
2023-02-22T06:22:41.275Z,15.02
2023-02-22T06:25:31.326Z,14.75
2023-02-22T06:28:17.170Z,13.95
2023-02-22T06:31:03.313Z,13.98
2023-02-22T06:33:48.953Z,15.52
2023-02-22T06:36:34.790Z,13.15
2023-02-22T06:39:20.747Z,12.93
2023-02-22T06:42:06.582Z,15.13
2023-02-22T06:44:52.251Z,13.57
2023-02-22T06:47:40.319Z,11.80
2023-02-22T06:50:32.011Z,12.73
2023-02-22T06:53:18.732Z,18.20
2023-02-22T06:56:05.055Z,13.48
2023-02-22T06:58:51.165Z,12.35
2023-02-22T07:01:37.020Z,16.90
2023-02-22T07:04:22.777Z,36.13
2023-02-22T07:07:08.503Z,36.15
2023-02-22T07:09:54.338Z,34.20
2023-02-22T07:12:40.160Z,26.13
2023-02-22T07:15:27.949Z,16.30
2023-02-22T07:18:14.194Z,12.00
2023-02-22T07:21:00.117Z,13.68
2023-02-22T07:23:56.314Z,13.63
2023-02-22T07:26:42.998Z,19.52
2023-02-22T07:29:28.834Z,14.52
2023-02-22T07:32:14.657Z,12.73
2023-02-22T07:35:02.930Z,11.50
2023-02-22T07:37:48.834Z,13.20
2023-02-22T07:40:35.518Z,13.70
2023-02-22T07:43:24.015Z,9.77
2023-02-22T07:46:11.578Z,11.77
2023-02-22T07:48:57.301Z,17.85
2023-02-22T07:51:43.246Z,15.50
2023-02-22T07:54:28.933Z,12.13
2023-02-22T07:57:15.678Z,13.70
2023-02-22T08:00:02.025Z,13.60
2023-02-22T08:02:48.079Z,15.63
2023-02-22T08:05:34.869Z,11.10
2023-02-22T08:08:20.959Z,12.63
2023-02-22T08:11:07.107Z,12.63
2023-02-22T08:13:53.063Z,13.63
2023-02-22T08:16:38.730Z,14.32
2023-02-22T08:19:24.692Z,15.00
2023-02-22T08:22:10.522Z,11.77
2023-02-22T08:24:56.327Z,13.27
2023-02-22T08:27:43.845Z,14.75
2023-02-22T08:30:31.411Z,13.88
2023-02-22T08:33:19.819Z,13.18
2023-02-22T08:36:06.181Z,14.07
2023-02-22T08:38:52.354Z,10.65
2023-02-22T08:41:38.178Z,9.98
2023-02-22T08:44:24.530Z,11.85
2023-02-22T08:47:10.407Z,12.48
2023-02-22T08:49:56.232Z,12.75
2023-02-22T08:52:42.138Z,9.35
2023-02-22T08:55:32.322Z,11.88
2023-02-22T08:58:18.306Z,12.27
2023-02-22T09:01:04.309Z,11.43
2023-02-22T09:03:51.458Z,9.90
2023-02-22T09:06:37.409Z,16.48
2023-02-22T09:09:23.555Z,8.82
2023-02-22T09:12:10.080Z,13.38
2023-02-22T09:14:55.726Z,10.00
2023-02-22T09:17:41.520Z,7.13
2023-02-22T09:20:27.792Z,9.30
2023-02-22T09:23:14.582Z,9.18
2023-02-22T09:26:01.042Z,10.35
2023-02-22T09:28:46.827Z,8.98
2023-02-22T09:31:35.812Z,9.32
2023-02-22T09:34:29.596Z,11.60
2023-02-22T09:37:15.483Z,18.00
2023-02-22T09:40:01.482Z,17.77
2023-02-22T09:42:57.049Z,12.38
2023-02-22T09:45:49.060Z,13.10
2023-02-22T09:48:36.699Z,17.47
2023-02-22T09:51:26.676Z,14.45
2023-02-22T09:54:27.238Z,15.35
2023-02-22T09:57:16.417Z,14.68
2023-02-22T10:00:13.734Z,18.83
2023-02-22T10:03:23.007Z,21.13
2023-02-22T10:06:15.017Z,16.85
2023-02-22T10:09:08.206Z,22.70
2023-02-22T10:11:58.585Z,9.18
2023-02-22T10:14:55.525Z,13.57
2023-02-22T10:17:48.153Z,16.98
2023-02-22T10:20:52.215Z,16.50
2023-02-22T10:24:04.564Z,14.68
2023-02-22T10:26:51.269Z,27.33
2023-02-22T10:29:47.187Z,14.95
2023-02-22T10:32:43.382Z,20.88
2023-02-22T10:35:33.743Z,19.33
2023-02-22T10:38:28.321Z,15.82
2023-02-22T10:41:24.363Z,19.90
2023-02-22T10:44:10.522Z,19.30
2023-02-22T10:46:56.639Z,22.15
2023-02-22T10:49:55.712Z,22.60
2023-02-22T10:52:41.870Z,20.25
2023-02-22T10:55:27.821Z,20.85
2023-02-22T10:58:14.041Z,18.95
2023-02-22T11:01:00.203Z,14.88
2023-02-22T11:03:46.158Z,13.38
2023-02-22T11:06:33.917Z,14.93
2023-02-22T11:09:24.603Z,8.80
2023-02-22T11:12:15.646Z,17.13
2023-02-22T11:15:24.348Z,14.93
2023-02-22T11:18:23.240Z,15.82
2023-02-22T11:21:11.707Z,14.02
2023-02-22T11:24:09.587Z,15.20
2023-02-22T11:26:58.995Z,16.95
2023-02-22T11:29:50.893Z,14.88
2023-02-22T11:32:43.510Z,17.10
2023-02-22T11:35:29.313Z,9.60
2023-02-22T11:38:29.763Z,12.32
2023-02-22T11:41:19.353Z,12.75
2023-02-22T11:44:29.764Z,10.43
2023-02-22T11:47:15.848Z,13.18
2023-02-22T11:50:02.379Z,12.23
2023-02-22T11:52:52.826Z,12.70
2023-02-22T11:55:45.068Z,12.38
2023-02-22T12:01:37.639Z,23.15
2023-02-22T12:04:44.811Z,26.10
2023-02-22T12:07:52.311Z,16.58
2023-02-22T12:11:10.222Z,18.02
2023-02-22T12:13:56.291Z,10.13
2023-02-22T12:16:45.073Z,17.08
2023-02-22T12:19:36.205Z,15.52
2023-02-22T12:22:28.052Z,10.25
2023-02-22T12:25:26.993Z,17.98
2023-02-22T12:28:24.937Z,11.60
2023-02-22T12:31:19.376Z,13.98
2023-02-22T12:34:41.407Z,11.43
2023-02-22T12:37:35.225Z,9.93
2023-02-22T12:40:31.140Z,11.13
2023-02-22T12:43:34.215Z,14.48
2023-02-22T12:46:21.853Z,12.88
2023-02-22T12:49:20.870Z,12.40
2023-02-22T12:52:35.349Z,14.82
2023-02-22T12:55:25.548Z,15.30
2023-02-22T12:58:31.467Z,14.13
2023-02-22T13:01:20.419Z,10.68
2023-02-22T13:04:20.180Z,13.43
2023-02-22T13:07:48.450Z,15.45
2023-02-22T13:10:53.411Z,9.98
2023-02-22T13:14:16.458Z,9.70
2023-02-22T13:17:27.422Z,11.98
2023-02-22T13:20:43.775Z,10.38
2023-02-22T13:23:46.236Z,11.80
2023-02-22T13:26:43.951Z,17.15
2023-02-22T13:29:35.334Z,10.02
2023-02-22T13:32:25.105Z,13.60
2023-02-22T13:35:20.539Z,12.13
2023-02-22T13:38:35.742Z,14.00
2023-02-22T13:41:45.139Z,8.93
2023-02-22T13:44:46.262Z,16.17
2023-02-22T13:47:57.977Z,10.43
2023-02-22T13:50:48.838Z,11.65
2023-02-22T13:53:56.077Z,10.88
2023-02-22T13:56:47.145Z,15.15
2023-02-22T13:59:37.206Z,10.82
2023-02-22T14:02:57.834Z,9.63
2023-02-22T14:05:46.798Z,9.38
2023-02-22T14:08:33.792Z,11.05
2023-02-22T14:11:19.769Z,12.55
2023-02-22T14:14:05.615Z,13.57
2023-02-22T14:17:21.991Z,12.02
2023-02-22T14:20:19.589Z,14.35
2023-02-22T14:23:23.747Z,17.85
2023-02-22T14:26:14.238Z,8.52
2023-02-22T14:29:09.110Z,15.93
2023-02-22T14:32:07.395Z,8.93
2023-02-22T14:34:55.083Z,13.07
2023-02-22T14:37:41.560Z,8.10
2023-02-22T14:40:32.048Z,14.23
2023-02-22T14:43:22.817Z,18.52
2023-02-22T14:46:13.375Z,14.95
2023-02-22T14:49:04.335Z,11.35
2023-02-22T14:52:00.044Z,8.05
2023-02-22T14:55:13.779Z,14.73
2023-02-22T14:58:06.145Z,14.43
2023-02-22T15:00:53.865Z,11.07
2023-02-22T15:03:39.654Z,16.70
2023-02-22T15:06:28.735Z,15.48
2023-02-22T15:09:29.225Z,27.10
2023-02-22T15:12:30.028Z,25.70
2023-02-22T15:15:22.114Z,16.55
2023-02-22T15:18:22.171Z,17.67
2023-02-22T15:21:13.492Z,18.25
2023-02-22T15:24:02.077Z,16.92
2023-02-22T15:27:00.854Z,22.75
2023-02-22T15:29:47.510Z,21.80
2023-02-22T15:32:53.394Z,27.05
2023-02-22T15:35:44.301Z,24.40
2023-02-22T15:38:30.975Z,23.65
2023-02-22T15:41:27.991Z,21.13
2023-02-22T15:44:23.166Z,24.10
2023-02-22T15:47:18.070Z,28.98
2023-02-22T15:50:25.927Z,26.15
2023-02-22T15:53:21.021Z,32.03
2023-02-22T15:56:20.407Z,37.03
2023-02-22T15:59:12.885Z,51.38
2023-02-22T16:01:59.757Z,66.05
2023-02-22T16:04:54.542Z,54.47
2023-02-22T16:07:50.121Z,49.80
2023-02-22T16:10:37.056Z,47.40
2023-02-22T16:13:32.027Z,52.00
2023-02-22T16:16:20.965Z,49.92
2023-02-22T16:19:32.893Z,59.17
2023-02-22T16:22:29.710Z,45.38
2023-02-22T16:25:18.946Z,48.38
2023-02-22T16:28:30.849Z,51.15
2023-02-22T16:31:17.435Z,54.03
2023-02-22T16:34:06.154Z,56.60
2023-02-22T16:36:52.280Z,45.40
2023-02-22T16:39:38.979Z,47.97
2023-02-22T16:42:25.666Z,46.33
2023-02-22T16:45:16.437Z,57.55
2023-02-22T16:48:21.410Z,40.28
2023-02-22T16:51:10.725Z,39.03
2023-02-22T16:53:56.754Z,48.17
2023-02-22T16:56:42.660Z,75.13
2023-02-22T16:59:29.262Z,53.35
2023-02-22T17:02:15.603Z,52.55
2023-02-22T17:05:01.790Z,50.58
2023-02-22T17:07:47.859Z,60.33
2023-02-22T17:10:34.309Z,57.92
2023-02-22T17:13:26.652Z,59.05
2023-02-22T17:19:05.106Z,34.00
2023-02-22T17:21:51.006Z,25.67
2023-02-22T17:24:39.272Z,33.53
2023-02-22T17:27:25.401Z,34.55
2023-02-22T17:30:13.996Z,39.35
2023-02-22T17:33:03.939Z,62.78
2023-02-22T17:35:50.081Z,64.57
2023-02-22T17:38:36.570Z,61.67
2023-02-22T17:41:22.639Z,54.45
2023-02-22T17:44:08.795Z,54.72
2023-02-22T17:46:54.716Z,55.67
2023-02-22T17:49:40.791Z,37.05
2023-02-22T17:52:30.236Z,30.75
2023-02-22T17:55:17.041Z,31.42
2023-02-22T17:58:03.100Z,31.10
2023-02-22T18:00:50.370Z,36.67
2023-02-22T18:03:40.217Z,25.80
2023-02-22T18:06:30.163Z,29.30
2023-02-22T18:09:17.839Z,27.60
2023-02-22T18:12:04.194Z,34.35
2023-02-22T18:14:50.158Z,30.33
2023-02-22T18:17:36.988Z,48.30
2023-02-22T18:20:38.311Z,32.92
2023-02-22T18:23:27.897Z,36.55
2023-02-22T18:26:21.593Z,29.67
2023-02-22T18:29:07.862Z,30.13
2023-02-22T18:31:54.036Z,28.20
2023-02-22T18:34:40.249Z,25.77
2023-02-22T18:37:28.350Z,31.88
2023-02-22T18:40:14.294Z,35.30
2023-02-22T18:43:00.420Z,34.03
2023-02-22T18:45:46.407Z,27.75
2023-02-22T18:48:32.914Z,28.02
2023-02-22T18:51:18.802Z,26.48
2023-02-22T18:54:04.722Z,38.53
2023-02-22T18:56:50.615Z,43.03
2023-02-22T18:59:38.116Z,38.38
2023-02-22T19:02:25.554Z,50.38
2023-02-22T19:05:12.758Z,30.73
2023-02-22T19:07:59.078Z,25.95
2023-02-22T19:10:45.283Z,27.02
2023-02-22T19:13:32.065Z,21.25
2023-02-22T19:16:22.877Z,22.60
2023-02-22T19:19:09.584Z,23.27
2023-02-22T19:21:56.479Z,29.17
2023-02-22T19:24:45.744Z,32.65
2023-02-22T19:27:34.048Z,30.70
2023-02-22T19:30:20.256Z,30.90
2023-02-22T19:33:06.437Z,29.05
2023-02-22T19:35:52.432Z,23.67
2023-02-22T19:38:39.344Z,28.63
2023-02-22T19:41:25.459Z,28.67
2023-02-22T19:44:12.385Z,27.05
2023-02-22T19:46:58.120Z,28.23
2023-02-22T19:49:43.957Z,27.02
2023-02-22T19:52:29.910Z,29.65
2023-02-22T19:55:15.943Z,26.50
2023-02-22T19:58:02.101Z,27.30
2023-02-22T20:00:47.959Z,32.38
2023-02-22T20:03:35.300Z,32.40
2023-02-22T20:06:23.138Z,36.13
2023-02-22T20:09:12.501Z,28.15
2023-02-22T20:11:58.733Z,27.02
2023-02-22T20:14:46.320Z,26.95
2023-02-22T20:17:32.664Z,28.92
2023-02-22T20:20:18.799Z,32.67
2023-02-22T20:23:07.601Z,29.40
2023-02-22T20:25:55.120Z,26.55
2023-02-22T20:28:41.363Z,31.50
2023-02-22T20:31:29.631Z,31.17
2023-02-22T20:34:15.620Z,30.30
2023-02-22T20:37:02.486Z,24.70
2023-02-22T20:39:50.763Z,27.08
2023-02-22T20:42:36.888Z,26.92
2023-02-22T20:45:22.979Z,23.17
2023-02-22T20:48:09.232Z,19.90
2023-02-22T20:50:55.214Z,26.48
2023-02-22T20:53:42.106Z,23.10
2023-02-22T20:56:30.167Z,20.98
2023-02-22T20:59:17.881Z,23.85
2023-02-22T21:02:04.252Z,25.05
2023-02-22T21:04:50.161Z,22.13
2023-02-22T21:07:35.978Z,24.90
2023-02-22T21:10:21.880Z,28.35
2023-02-22T21:13:11.243Z,22.27
2023-02-22T21:15:57.565Z,27.27
2023-02-22T21:18:43.532Z,25.80
2023-02-22T21:21:30.045Z,26.50
2023-02-22T21:24:16.005Z,27.63
2023-02-22T21:27:02.597Z,24.52
2023-02-22T21:29:48.626Z,24.42
2023-02-22T21:32:35.631Z,24.23
2023-02-22T21:35:23.137Z,29.52
2023-02-22T21:38:14.463Z,22.38
2023-02-22T21:41:03.322Z,23.73
2023-02-22T21:43:53.177Z,24.77
2023-02-22T21:46:39.439Z,21.48
2023-02-22T21:49:25.426Z,24.52
2023-02-22T21:52:11.272Z,24.17
2023-02-22T21:54:57.196Z,25.25
2023-02-22T21:57:43.076Z,21.17
2023-02-22T22:00:29.264Z,23.17
2023-02-22T22:03:20.506Z,23.33
2023-02-22T22:06:13.596Z,24.52
2023-02-22T22:09:00.189Z,27.05
2023-02-22T22:11:50.276Z,28.25
2023-02-22T22:14:37.484Z,26.00
2023-02-22T22:17:23.999Z,30.88
2023-02-22T22:20:11.692Z,24.67
2023-02-22T22:22:57.476Z,24.42
2023-02-22T22:25:43.781Z,22.65
2023-02-22T22:28:31.600Z,21.45
2023-02-22T22:31:19.670Z,26.65
2023-02-22T22:34:06.389Z,25.10
2023-02-22T22:36:52.785Z,26.42
2023-02-22T22:39:38.893Z,24.23
2023-02-22T22:42:25.047Z,25.52
2023-02-22T22:45:11.938Z,29.88
2023-02-22T22:47:57.703Z,27.20
2023-02-22T22:50:46.542Z,30.13
2023-02-22T22:53:34.163Z,25.30
2023-02-22T22:56:29.153Z,27.83
2023-02-22T22:59:15.578Z,24.33
2023-02-22T23:02:04.539Z,27.77
2023-02-22T23:04:51.718Z,20.75
2023-02-22T23:07:37.978Z,20.92
2023-02-22T23:10:30.096Z,22.65
2023-02-22T23:13:16.273Z,21.38
2023-02-22T23:16:02.201Z,20.83
2023-02-22T23:18:47.912Z,20.98
2023-02-22T23:21:35.930Z,21.50
2023-02-22T23:24:22.074Z,21.30
2023-02-22T23:27:08.161Z,21.73
2023-02-22T23:29:54.097Z,25.25
2023-02-22T23:32:41.345Z,23.23
2023-02-22T23:35:27.628Z,24.65
2023-02-22T23:38:13.560Z,22.10
2023-02-22T23:41:03.992Z,21.40
2023-02-22T23:43:51.776Z,19.95
2023-02-22T23:46:41.216Z,20.52
2023-02-22T23:49:35.874Z,20.55
2023-02-22T23:52:24.526Z,22.95
2023-02-22T23:55:10.473Z,22.88
2023-02-22T23:57:59.514Z,18.48
